Time;durP1;ratioP1;P1;durP2;ratioP2;P2;SDS_P1;SDS_P2;PMS_P1;PMS_P2;Temp;Humidity;BMP_temperature;BMP_pressure;BME280_temperature;BME280_humidity;BME280_pressure;Samples;Min_cycle;Max_cycle;Signal;HPM_P1;HPM_P2
2022/05/01 00:00:57;;;;;;;;;;;17.10;39.80;;;;;;5017475;28;20008;-63
2022/05/01 00:03:31;;;;;;;;;;;17.20;39.60;;;;;;5017171;28;19956;-65
2022/05/01 00:06:00;;;;;;;;;;;17.20;39.80;;;;;;5017202;28;19910;-64
2022/05/01 00:08:26;;;;;;;;;;;17.20;39.90;;;;;;5017405;28;19952;-65
2022/05/01 00:10:52;;;;;;;;;;;17.20;40.00;;;;;;5015997;28;19910;-63
2022/05/01 00:13:18;;;;;;;;;;;17.20;40.20;;;;;;5016913;28;19913;-64
2022/05/01 00:15:43;;;;;;;;;;;17.20;40.20;;;;;;5015806;28;19910;-64
2022/05/01 00:18:09;;;;;;;;;;;17.30;40.30;;;;;;5016957;28;19956;-64
2022/05/01 00:20:34;;;;;;;;;;;17.20;40.20;;;;;;5016747;28;19917;-66
2022/05/01 00:23:00;;;;;;;;;;;17.20;40.50;;;;;;5016858;28;19910;-65
2022/05/01 00:25:26;;;;;;;;;;;17.20;40.70;;;;;;5017078;28;19976;-65
2022/05/01 00:27:52;;;;;;;;;;;17.10;41.10;;;;;;5016907;28;19910;-63
2022/05/01 00:30:17;;;;;;;;;;;17.00;41.40;;;;;;5016818;28;19979;-63
2022/05/01 00:38:11;;;;;;;;;;;16.70;42.60;;;;;;5016575;28;20376;-63
2022/05/01 00:40:37;;;;;;;;;;;16.60;42.90;;;;;;5016586;28;19917;-65
2022/05/01 00:43:04;;;;;;;;;;;16.60;43.00;;;;;;5016590;28;20357;-64
2022/05/01 00:45:29;;;;;;;;;;;16.60;44.10;;;;;;5016688;28;19909;-63
2022/05/01 00:47:55;;;;;;;;;;;16.60;42.90;;;;;;5016738;28;19909;-63
2022/05/01 00:50:21;;;;;;;;;;;16.80;42.80;;;;;;5016558;28;20358;-64
2022/05/01 00:52:46;;;;;;;;;;;16.90;42.80;;;;;;5016616;28;19947;-63
2022/05/01 00:55:13;;;;;;;;;;;16.90;42.50;;;;;;5016422;28;19909;-65
2022/05/01 00:57:38;;;;;;;;;;;16.80;42.60;;;;;;5016302;28;19921;-64
2022/05/01 01:00:04;;;;;;;;;;;16.90;42.50;;;;;;5016415;28;19910;-64
2022/05/01 01:02:33;;;;;;;;;;;16.90;42.40;;;;;;5016098;28;20025;-63
2022/05/01 01:04:58;;;;;;;;;;;16.80;42.70;;;;;;5015462;28;20369;-65
2022/05/01 01:07:27;;;;;;;;;;;16.80;42.90;;;;;;5016107;28;19916;-64
2022/05/01 01:09:53;;;;;;;;;;;16.70;43.70;;;;;;5016313;28;20013;-64
2022/05/01 01:15:08;;;;;;;;;;;16.60;43.80;;;;;;5015899;28;20408;-63
2022/05/01 01:17:36;;;;;;;;;;;16.70;43.50;;;;;;5015884;28;19909;-63
2022/05/01 01:20:07;;;;;;;;;;;16.70;43.60;;;;;;5015980;28;19956;-63
2022/05/01 01:22:32;;;;;;;;;;;16.70;43.60;;;;;;5015772;28;20404;-64
2022/05/01 01:24:58;;;;;;;;;;;16.60;43.80;;;;;;5015753;28;19929;-63
2022/05/01 01:27:24;;;;;;;;;;;16.70;43.90;;;;;;5014522;28;19918;-63
2022/05/01 01:32:35;;;;;;;;;;;16.60;44.30;;;;;;5015904;28;19916;-61
2022/05/01 01:35:02;;;;;;;;;;;16.60;44.40;;;;;;5015912;28;19909;-64
2022/05/01 01:37:28;;;;;;;;;;;16.60;44.30;;;;;;5015470;28;20288;-64
2022/05/01 01:39:54;;;;;;;;;;;16.60;44.50;;;;;;5015862;28;19913;-64
2022/05/01 01:42:21;;;;;;;;;;;16.60;44.80;;;;;;5015350;28;19921;-64
2022/05/01 01:44:47;;;;;;;;;;;16.60;45.00;;;;;;5015634;28;19909;-63
2022/05/01 01:47:13;;;;;;;;;;;16.50;44.90;;;;;;5015313;28;19909;-64
2022/05/01 01:49:39;;;;;;;;;;;16.60;45.20;;;;;;5015430;28;19913;-62
2022/05/01 01:52:05;;;;;;;;;;;16.60;45.20;;;;;;5015150;28;20425;-62
2022/05/01 01:54:30;;;;;;;;;;;16.60;45.20;;;;;;5015236;28;20441;-64
2022/05/01 01:56:56;;;;;;;;;;;16.60;45.40;;;;;;5015424;28;19910;-63
2022/05/01 01:59:22;;;;;;;;;;;16.50;45.30;;;;;;5015361;28;19916;-63
2022/05/01 02:01:48;;;;;;;;;;;16.60;45.20;;;;;;5015154;28;19971;-64
2022/05/01 02:04:14;;;;;;;;;;;16.60;45.10;;;;;;5015376;28;19910;-64
2022/05/01 02:06:39;;;;;;;;;;;16.60;45.30;;;;;;5015177;28;19960;-65
2022/05/01 02:09:07;;;;;;;;;;;16.50;45.40;;;;;;5014937;28;19909;-65
2022/05/01 02:11:34;;;;;;;;;;;16.60;45.60;;;;;;5015338;28;19909;-65
2022/05/01 02:13:59;;;;;;;;;;;16.60;45.60;;;;;;5015159;28;20000;-63
2022/05/01 02:16:25;;;;;;;;;;;16.60;45.80;;;;;;5014537;28;20392;-62
2022/05/01 02:18:51;;;;;;;;;;;16.60;45.80;;;;;;5014827;28;19910;-63
2022/05/01 02:21:35;;;;;;;;;;;16.60;46.10;;;;;;5014774;28;19975;-65
2022/05/01 02:24:04;;;;;;;;;;;16.60;46.00;;;;;;5014868;28;20353;-62
2022/05/01 02:26:30;;;;;;;;;;;16.60;45.90;;;;;;5014674;28;19937;-62
2022/05/01 02:28:57;;;;;;;;;;;16.60;46.30;;;;;;5015017;28;20412;-63
2022/05/01 02:31:22;;;;;;;;;;;16.40;46.50;;;;;;5014888;28;19910;-63
2022/05/01 02:33:48;;;;;;;;;;;16.50;46.80;;;;;;5014514;28;20415;-66
2022/05/01 02:36:16;;;;;;;;;;;16.60;46.60;;;;;;5014780;28;20439;-63
2022/05/01 02:38:42;;;;;;;;;;;16.60;46.70;;;;;;5014350;28;19910;-63
2022/05/01 02:41:07;;;;;;;;;;;16.50;47.00;;;;;;5014330;28;19918;-63
2022/05/01 02:43:33;;;;;;;;;;;16.50;47.10;;;;;;5014524;28;19909;-65
2022/05/01 02:45:58;;;;;;;;;;;16.50;47.20;;;;;;5014262;28;20388;-65
2022/05/01 02:48:24;;;;;;;;;;;16.50;47.20;;;;;;5014643;28;20003;-61
2022/05/01 02:50:49;;;;;;;;;;;16.50;47.20;;;;;;5014455;28;19909;-66
2022/05/01 02:53:15;;;;;;;;;;;16.50;47.10;;;;;;5014341;28;20317;-65
2022/05/01 02:55:40;;;;;;;;;;;16.50;47.40;;;;;;5014195;28;19909;-67
2022/05/01 02:58:06;;;;;;;;;;;16.40;47.60;;;;;;5014633;28;19909;-65
2022/05/01 03:00:33;;;;;;;;;;;16.50;47.70;;;;;;5014439;28;20369;-64
2022/05/01 03:02:59;;;;;;;;;;;16.50;47.30;;;;;;5014017;28;19972;-63
2022/05/01 03:05:24;;;;;;;;;;;16.50;47.20;;;;;;5014495;28;19909;-64
2022/05/01 03:07:50;;;;;;;;;;;16.50;47.20;;;;;;5014357;28;19956;-66
2022/05/01 03:10:16;;;;;;;;;;;16.60;47.50;;;;;;5014429;28;20281;-64
2022/05/01 03:12:41;;;;;;;;;;;16.50;47.20;;;;;;5014008;28;19916;-64
2022/05/01 03:15:07;;;;;;;;;;;16.50;47.40;;;;;;5014080;28;19909;-64
2022/05/01 03:23:01;;;;;;;;;;;16.40;47.80;;;;;;5014366;28;19941;-64
2022/05/01 03:25:27;;;;;;;;;;;16.40;48.00;;;;;;5014232;28;19910;-62
2022/05/01 03:27:56;;;;;;;;;;;16.40;47.90;;;;;;5016700;28;20369;-65
2022/05/01 03:30:22;;;;;;;;;;;16.40;48.10;;;;;;5017810;28;19920;-63
2022/05/01 03:32:48;;;;;;;;;;;16.30;48.20;;;;;;5018151;28;19909;-65
2022/05/01 03:35:14;;;;;;;;;;;16.40;48.40;;;;;;5018020;28;20290;-64
2022/05/01 03:37:41;;;;;;;;;;;16.40;48.40;;;;;;5018219;28;19917;-64
2022/05/01 03:40:08;;;;;;;;;;;16.30;48.30;;;;;;5017661;28;20464;-61
2022/05/01 03:42:34;;;;;;;;;;;16.40;48.80;;;;;;5017657;28;19918;-64
2022/05/01 03:44:59;;;;;;;;;;;16.30;48.80;;;;;;5018239;28;20408;-65
2022/05/01 03:47:25;;;;;;;;;;;16.30;49.00;;;;;;5017675;28;20273;-63
2022/05/01 03:49:50;;;;;;;;;;;16.40;48.80;;;;;;5017487;28;19917;-63
2022/05/01 03:52:16;;;;;;;;;;;16.30;49.10;;;;;;5017703;28;19988;-64
2022/05/01 03:54:41;;;;;;;;;;;16.30;49.70;;;;;;5017531;28;20289;-66
2022/05/01 03:57:09;;;;;;;;;;;16.20;49.80;;;;;;5017569;28;19916;-66
2022/05/01 03:59:34;;;;;;;;;;;16.20;49.80;;;;;;5017645;28;20378;-65
2022/05/01 04:02:00;;;;;;;;;;;16.20;50.00;;;;;;5017632;28;19967;-63
2022/05/01 04:04:26;;;;;;;;;;;16.30;50.10;;;;;;5017587;28;19910;-63
2022/05/01 04:06:51;;;;;;;;;;;16.30;50.20;;;;;;5017342;28;19910;-63
2022/05/01 04:09:17;;;;;;;;;;;16.30;50.00;;;;;;5017373;28;19910;-64
2022/05/01 04:11:42;;;;;;;;;;;16.30;50.30;;;;;;5017058;28;20350;-63
2022/05/01 04:14:08;;;;;;;;;;;16.20;50.40;;;;;;5017021;28;19967;-62
2022/05/01 04:16:33;;;;;;;;;;;16.20;50.70;;;;;;5017053;28;19931;-63
2022/05/01 04:18:59;;;;;;;;;;;16.30;50.50;;;;;;5016949;28;20392;-63
2022/05/01 04:21:25;;;;;;;;;;;16.30;50.50;;;;;;5017142;28;19952;-64
2022/05/01 04:23:51;;;;;;;;;;;16.30;50.70;;;;;;5016934;28;20304;-63
2022/05/01 04:26:16;;;;;;;;;;;16.30;50.60;;;;;;5016780;28;19909;-65
2022/05/01 04:29:36;;;;;;;;;;;16.50;50.50;;;;;;5017032;28;19920;-65
2022/05/01 04:31:27;;;;;;;;;;;16.40;50.50;;;;;;5016611;28;19906;-63
2022/05/01 04:33:53;;;;;;;;;;;16.40;50.50;;;;;;5016952;28;19917;-65
2022/05/01 04:36:19;;;;;;;;;;;16.40;50.70;;;;;;5017023;28;20437;-63
2022/05/01 04:38:44;;;;;;;;;;;16.40;50.90;;;;;;5016494;28;20434;-65
2022/05/01 04:41:10;;;;;;;;;;;16.30;50.80;;;;;;5016743;28;19963;-64
2022/05/01 04:43:36;;;;;;;;;;;16.40;50.60;;;;;;5015071;28;20270;-65
2022/05/01 04:46:02;;;;;;;;;;;16.50;50.80;;;;;;5016773;28;19944;-64
2022/05/01 04:48:28;;;;;;;;;;;16.40;50.60;;;;;;5016643;28;20472;-64
2022/05/01 04:50:54;;;;;;;;;;;16.40;50.80;;;;;;5016488;28;19964;-63
2022/05/01 04:53:20;;;;;;;;;;;16.40;51.10;;;;;;5016253;28;19909;-63
2022/05/01 04:55:47;;;;;;;;;;;16.30;51.30;;;;;;5016320;28;19909;-62
2022/05/01 04:58:16;;;;;;;;;;;16.30;51.30;;;;;;5016289;28;19913;-63
2022/05/01 05:00:42;;;;;;;;;;;16.40;51.40;;;;;;5015327;28;19952;-62
2022/05/01 05:03:08;;;;;;;;;;;16.30;51.70;;;;;;5016249;28;20107;-64
2022/05/01 05:05:37;;;;;;;;;;;16.40;51.50;;;;;;5016236;28;19913;-64
2022/05/01 05:10:48;;;;;;;;;;;16.30;51.90;;;;;;5016157;28;20013;-66
2022/05/01 05:13:14;;;;;;;;;;;16.40;52.00;;;;;;5016190;28;19909;-64
2022/05/01 05:15:40;;;;;;;;;;;16.50;51.70;;;;;;5016016;28;19910;-64
2022/05/01 05:18:05;;;;;;;;;;;16.50;51.60;;;;;;5016157;28;20266;-64
2022/05/01 05:20:31;;;;;;;;;;;16.40;51.90;;;;;;5015796;28;20354;-63
2022/05/01 05:22:57;;;;;;;;;;;16.40;51.90;;;;;;5015567;28;19941;-65
2022/05/01 05:25:22;;;;;;;;;;;16.30;52.20;;;;;;5016231;28;19921;-66
2022/05/01 05:27:48;;;;;;;;;;;16.30;52.50;;;;;;5015564;28;20012;-66
2022/05/01 05:30:14;;;;;;;;;;;16.30;52.50;;;;;;5015824;28;19916;-63
2022/05/01 05:32:39;;;;;;;;;;;16.40;52.40;;;;;;5015878;28;19915;-64
2022/05/01 05:35:05;;;;;;;;;;;16.40;52.60;;;;;;5015669;28;20376;-64
2022/05/01 05:37:31;;;;;;;;;;;16.50;52.50;;;;;;5015488;28;20000;-65
2022/05/01 05:39:57;;;;;;;;;;;16.60;52.50;;;;;;5015583;28;19909;-63
2022/05/01 05:42:23;;;;;;;;;;;16.60;52.30;;;;;;5015506;28;20468;-63
2022/05/01 05:44:48;;;;;;;;;;;16.60;52.40;;;;;;5015632;28;19913;-65
2022/05/01 05:47:14;;;;;;;;;;;16.60;52.30;;;;;;5015594;28;19916;-63
2022/05/01 05:49:39;;;;;;;;;;;16.70;52.20;;;;;;5014614;28;19909;-63
2022/05/01 05:52:05;;;;;;;;;;;16.70;52.20;;;;;;5015110;28;20361;-63
2022/05/01 05:54:32;;;;;;;;;;;16.90;52.20;;;;;;5015097;28;19956;-65
2022/05/01 05:56:58;;;;;;;;;;;17.30;52.40;;;;;;5014595;28;19932;-64
2022/05/01 05:59:23;;;;;;;;;;;17.60;51.60;;;;;;5015159;28;20362;-63
2022/05/01 06:01:49;;;;;;;;;;;17.90;50.90;;;;;;5014957;28;20377;-63
2022/05/01 06:04:14;;;;;;;;;;;17.90;50.50;;;;;;5014926;28;20429;-64
2022/05/01 06:06:40;;;;;;;;;;;18.10;50.10;;;;;;5014994;28;19921;-63
2022/05/01 06:09:07;;;;;;;;;;;18.30;50.10;;;;;;5014926;28;20001;-63
2022/05/01 06:11:32;;;;;;;;;;;18.30;48.70;;;;;;5013781;28;20381;-67
2022/05/01 06:13:58;;;;;;;;;;;18.20;48.60;;;;;;5014910;28;19921;-64
2022/05/01 06:16:23;;;;;;;;;;;18.40;49.40;;;;;;5014894;28;20402;-66
2022/05/01 06:18:49;;;;;;;;;;;18.40;49.00;;;;;;5014808;28;20321;-75
2022/05/01 06:21:14;;;;;;;;;;;18.60;48.60;;;;;;5014600;28;20016;-71
2022/05/01 06:23:40;;;;;;;;;;;18.60;48.50;;;;;;5014321;28;19975;-69
2022/05/01 06:26:07;;;;;;;;;;;18.40;49.00;;;;;;5014472;28;20365;-67
2022/05/01 06:28:33;;;;;;;;;;;18.50;49.50;;;;;;5014492;28;19909;-62
2022/05/01 06:30:58;;;;;;;;;;;18.80;49.00;;;;;;5014463;28;19913;-69
2022/05/01 06:33:24;;;;;;;;;;;19.00;48.50;;;;;;5014425;28;19909;-65
2022/05/01 06:35:53;;;;;;;;;;;19.20;48.50;;;;;;5013055;28;19936;-70
2022/05/01 06:38:18;;;;;;;;;;;19.30;48.30;;;;;;5013002;28;20316;-65
2022/05/01 06:40:44;;;;;;;;;;;19.50;47.50;;;;;;5014123;28;19910;-64
2022/05/01 06:43:14;;;;;;;;;;;19.60;47.40;;;;;;5014224;28;19909;-70
2022/05/01 06:45:41;;;;;;;;;;;19.60;47.60;;;;;;5014263;28;19910;-70
2022/05/01 06:48:08;;;;;;;;;;;19.40;48.10;;;;;;5014194;28;19960;-71
2022/05/01 06:50:34;;;;;;;;;;;19.50;48.10;;;;;;5014254;28;20292;-69
2022/05/01 06:52:59;;;;;;;;;;;19.40;47.90;;;;;;5014044;28;19914;-69
2022/05/01 06:55:25;;;;;;;;;;;19.40;48.00;;;;;;5013839;28;20358;-66
2022/05/01 06:57:54;;;;;;;;;;;19.10;47.30;;;;;;5018244;28;20401;-72
2022/05/01 07:00:20;;;;;;;;;;;18.80;49.10;;;;;;5022198;28;19909;-70
2022/05/01 07:02:46;;;;;;;;;;;19.00;49.60;;;;;;5019926;28;19972;-70
2022/05/01 07:05:12;;;;;;;;;;;18.70;48.70;;;;;;5014264;28;19914;-74
2022/05/01 07:07:38;;;;;;;;;;;18.80;49.70;;;;;;5014272;28;19955;-74
2022/05/01 07:10:04;;;;;;;;;;;19.00;49.50;;;;;;5014171;28;19909;-71
2022/05/01 07:12:29;;;;;;;;;;;18.90;49.20;;;;;;5014045;28;19909;-71
2022/05/01 07:14:55;;;;;;;;;;;18.90;49.60;;;;;;5014073;28;20335;-75
2022/05/01 07:17:21;;;;;;;;;;;19.10;49.00;;;;;;5013698;28;19913;-73
2022/05/01 07:19:46;;;;;;;;;;;19.30;49.40;;;;;;5013980;28;19921;-72
2022/05/01 07:22:12;;;;;;;;;;;19.30;48.80;;;;;;5013706;28;19975;-70
2022/05/01 07:24:38;;;;;;;;;;;19.40;49.10;;;;;;5013504;28;20294;-71
2022/05/01 07:27:03;;;;;;;;;;;19.40;48.70;;;;;;5014010;28;19917;-71
2022/05/01 07:29:29;;;;;;;;;;;19.40;48.90;;;;;;5014006;28;20384;-64
2022/05/01 07:31:55;;;;;;;;;;;19.50;48.90;;;;;;5013835;28;20258;-65
2022/05/01 07:34:20;;;;;;;;;;;19.50;48.70;;;;;;5013908;28;19913;-65
2022/05/01 07:36:46;;;;;;;;;;;19.50;48.70;;;;;;5013746;28;20695;-67
2022/05/01 07:39:12;;;;;;;;;;;19.60;48.90;;;;;;5013574;28;20261;-70
2022/05/01 07:41:37;;;;;;;;;;;19.50;48.80;;;;;;5013458;28;20379;-71
2022/05/01 07:44:03;;;;;;;;;;;19.50;48.70;;;;;;5013466;28;20016;-66
2022/05/01 07:46:29;;;;;;;;;;;19.60;49.00;;;;;;5013698;28;19913;-64
2022/05/01 07:48:54;;;;;;;;;;;19.50;49.40;;;;;;5013394;28;19909;-62
2022/05/01 07:51:20;;;;;;;;;;;19.80;49.00;;;;;;5013815;28;19910;-68
2022/05/01 07:53:45;;;;;;;;;;;19.80;48.90;;;;;;5013510;28;19932;-70
2022/05/01 07:56:11;;;;;;;;;;;19.80;49.30;;;;;;5013735;28;19913;-69
2022/05/01 07:58:36;;;;;;;;;;;19.70;48.50;;;;;;5013161;28;19910;-70
2022/05/01 08:01:03;;;;;;;;;;;19.90;48.20;;;;;;5013132;28;19929;-67
2022/05/01 08:06:14;;;;;;;;;;;20.10;47.70;;;;;;5013093;28;19920;-68
2022/05/01 08:08:40;;;;;;;;;;;20.30;47.80;;;;;;5013170;28;20048;-70
2022/05/01 08:11:06;;;;;;;;;;;20.40;47.30;;;;;;5013146;28;19910;-72
2022/05/01 08:13:32;;;;;;;;;;;20.50;46.90;;;;;;5014782;28;19924;-72
2022/05/01 08:15:57;;;;;;;;;;;20.60;47.20;;;;;;5016753;28;19918;-67
2022/05/01 08:21:10;;;;;;;;;;;21.00;45.40;;;;;;5016563;28;19924;-65
2022/05/01 08:23:36;;;;;;;;;;;20.90;45.90;;;;;;5016629;28;19925;-72
2022/05/01 08:26:03;;;;;;;;;;;20.90;45.20;;;;;;5016939;28;20302;-71
2022/05/01 08:28:32;;;;;;;;;;;20.90;45.90;;;;;;5016307;28;19964;-71
2022/05/01 08:31:00;;;;;;;;;;;20.80;45.80;;;;;;5015787;28;20311;-68
2022/05/01 08:33:26;;;;;;;;;;;20.80;46.00;;;;;;5016330;28;19909;-67
2022/05/01 08:35:52;;;;;;;;;;;20.80;45.90;;;;;;5016579;28;19913;-69
2022/05/01 08:38:18;;;;;;;;;;;20.80;46.60;;;;;;5015703;28;19914;-68
2022/05/01 08:40:46;;;;;;;;;;;20.90;46.30;;;;;;5015754;28;20005;-69
2022/05/01 08:43:15;;;;;;;;;;;21.00;46.40;;;;;;5013320;28;19914;-65
2022/05/01 08:45:45;;;;;;;;;;;21.00;46.20;;;;;;5015818;28;19910;-64
2022/05/01 08:48:18;;;;;;;;;;;21.10;45.70;;;;;;5012966;28;20392;-68
2022/05/01 08:50:44;;;;;;;;;;;21.20;45.20;;;;;;5015737;28;20342;-64
2022/05/01 08:53:10;;;;;;;;;;;21.30;44.90;;;;;;5014632;28;20000;-64
2022/05/01 08:55:38;;;;;;;;;;;21.40;44.80;;;;;;5016030;28;19923;-65
2022/05/01 08:58:04;;;;;;;;;;;21.50;45.40;;;;;;5016391;28;19932;-73
2022/05/01 09:00:30;;;;;;;;;;;21.50;45.40;;;;;;5016541;28;20357;-66
2022/05/01 09:02:56;;;;;;;;;;;21.30;44.40;;;;;;5015948;28;20336;-66
2022/05/01 09:05:21;;;;;;;;;;;21.10;45.20;;;;;;5015798;28;19914;-66
2022/05/01 09:07:47;;;;;;;;;;;21.20;46.10;;;;;;5016002;28;20258;-67
2022/05/01 09:10:13;;;;;;;;;;;21.20;46.50;;;;;;5015911;28;20273;-68
2022/05/01 09:12:53;;;;;;;;;;;21.30;46.50;;;;;;5015784;28;19985;-63
2022/05/01 09:15:29;;;;;;;;;;;21.10;45.60;;;;;;5015704;28;19914;-68
2022/05/01 09:17:59;;;;;;;;;;;21.00;46.20;;;;;;5015654;28;19916;-66
2022/05/01 09:20:24;;;;;;;;;;;21.00;45.80;;;;;;5014737;28;19910;-69
2022/05/01 09:22:53;;;;;;;;;;;21.00;46.80;;;;;;5014274;28;19918;-65
2022/05/01 09:25:22;;;;;;;;;;;21.00;46.10;;;;;;5014544;28;19932;-66
2022/05/01 09:27:49;;;;;;;;;;;21.10;45.80;;;;;;5015671;28;19940;-66
2022/05/01 09:30:16;;;;;;;;;;;21.00;45.70;;;;;;5015535;28;19954;-67
2022/05/01 09:32:42;;;;;;;;;;;21.10;46.30;;;;;;5015209;28;19910;-63
2022/05/01 09:35:29;;;;;;;;;;;21.30;45.60;;;;;;5015060;28;19910;-61
2022/05/01 09:38:14;;;;;;;;;;;21.40;46.00;;;;;;5014915;28;20293;-63
2022/05/01 09:40:40;;;;;;;;;;;21.40;45.50;;;;;;5012741;28;20366;-64
2022/05/01 09:43:05;;;;;;;;;;;21.20;44.90;;;;;;5014774;28;19929;-63
2022/05/01 09:45:32;;;;;;;;;;;21.20;45.80;;;;;;5015158;28;20352;-64
2022/05/01 09:47:57;;;;;;;;;;;21.20;46.20;;;;;;5015319;28;19916;-62
2022/05/01 09:50:39;;;;;;;;;;;21.20;45.20;;;;;;5014986;28;19910;-62
2022/05/01 09:53:05;;;;;;;;;;;21.00;46.60;;;;;;5014536;28;19945;-62
2022/05/01 09:55:31;;;;;;;;;;;20.90;45.80;;;;;;5013588;28;19964;-66
2022/05/01 09:58:07;;;;;;;;;;;20.90;45.20;;;;;;5013351;28;19913;-61
2022/05/01 10:00:35;;;;;;;;;;;20.90;43.40;;;;;;5011437;28;20389;-65
2022/05/01 10:03:18;;;;;;;;;;;20.70;42.00;;;;;;5013473;28;19922;-64
2022/05/01 10:05:44;;;;;;;;;;;20.60;43.20;;;;;;5012774;28;19914;-66
2022/05/01 10:08:11;;;;;;;;;;;20.30;44.50;;;;;;5013346;28;20026;-63
2022/05/01 10:10:37;;;;;;;;;;;20.10;44.40;;;;;;5013404;28;19920;-62
2022/05/01 10:13:05;;;;;;;;;;;19.70;45.50;;;;;;5013126;28;20498;-64
2022/05/01 10:15:31;;;;;;;;;;;19.80;44.30;;;;;;4995456;28;20388;-64
2022/05/01 10:17:57;;;;;;;;;;;19.80;45.50;;;;;;5004598;28;19968;-63
2022/05/01 10:20:23;;;;;;;;;;;19.80;47.20;;;;;;4994008;28;19917;-59
2022/05/01 10:22:49;;;;;;;;;;;19.80;48.90;;;;;;4993420;28;19929;-64
2022/05/01 10:25:18;;;;;;;;;;;19.80;50.10;;;;;;4993934;28;19925;-62
2022/05/01 10:27:51;;;;;;;;;;;19.60;51.80;;;;;;4993659;28;19956;-65
2022/05/01 10:33:10;;;;;;;;;;;19.00;60.90;;;;;;4994061;28;19939;-63
2022/05/01 10:35:45;;;;;;;;;;;18.60;63.40;;;;;;4993504;28;19968;-65
2022/05/01 10:38:10;;;;;;;;;;;18.40;61.40;;;;;;4994090;28;19921;-67
2022/05/01 10:40:40;;;;;;;;;;;18.40;56.70;;;;;;4993916;28;19909;-67
2022/05/01 10:43:24;;;;;;;;;;;18.20;62.90;;;;;;4993971;28;19997;-68
2022/05/01 10:45:51;;;;;;;;;;;18.10;58.90;;;;;;4993633;28;19917;-70
2022/05/01 10:48:28;;;;;;;;;;;17.50;59.00;;;;;;4993860;28;19917;-73
2022/05/01 10:50:54;;;;;;;;;;;17.30;59.70;;;;;;4992260;28;19913;-62
2022/05/01 10:53:20;;;;;;;;;;;17.20;62.10;;;;;;4993778;28;19910;-71
2022/05/01 10:55:48;;;;;;;;;;;17.20;67.60;;;;;;4993630;28;20288;-64
2022/05/01 10:58:25;;;;;;;;;;;17.50;64.20;;;;;;5001387;28;19917;-71
2022/05/01 11:00:51;;;;;;;;;;;17.40;59.60;;;;;;4993498;28;19965;-71
2022/05/01 11:03:27;;;;;;;;;;;17.40;57.00;;;;;;4993691;28;20005;-71
2022/05/01 11:06:01;;;;;;;;;;;17.20;58.10;;;;;;4993512;28;19909;-67
2022/05/01 11:08:29;;;;;;;;;;;17.50;56.00;;;;;;4993920;28;19917;-64
2022/05/01 11:10:58;;;;;;;;;;;17.40;55.20;;;;;;4993249;28;20294;-68
2022/05/01 11:13:25;;;;;;;;;;;17.50;58.20;;;;;;4993766;28;19910;-73
2022/05/01 11:15:51;;;;;;;;;;;18.00;55.60;;;;;;4996587;28;19909;-66
2022/05/01 11:18:26;;;;;;;;;;;18.30;54.20;;;;;;4993390;28;20307;-60
2022/05/01 11:20:52;;;;;;;;;;;18.60;54.30;;;;;;4993540;28;19917;-64
2022/05/01 11:23:31;;;;;;;;;;;18.30;54.70;;;;;;4993607;28;19922;-62
2022/05/01 11:26:10;;;;;;;;;;;18.20;56.20;;;;;;4993533;28;19965;-59
2022/05/01 11:28:46;;;;;;;;;;;18.40;52.30;;;;;;4993514;28;19914;-57
2022/05/01 11:31:31;;;;;;;;;;;18.10;55.60;;;;;;4993449;28;19964;-60
2022/05/01 11:34:28;;;;;;;;;;;18.10;54.50;;;;;;4993330;28;20008;-61
2022/05/01 11:37:04;;;;;;;;;;;18.30;54.80;;;;;;4960521;28;19910;-61
2022/05/01 11:39:51;;;;;;;;;;;18.50;55.40;;;;;;4993537;28;20286;-60
2022/05/01 11:42:25;;;;;;;;;;;18.70;56.40;;;;;;4993078;28;19925;-60
2022/05/01 11:44:51;;;;;;;;;;;18.50;56.70;;;;;;4993037;28;19971;-59
2022/05/01 11:47:20;;;;;;;;;;;18.30;56.90;;;;;;4993194;28;20358;-59
2022/05/01 11:49:46;;;;;;;;;;;18.40;57.20;;;;;;4996923;28;19910;-60
2022/05/01 11:52:16;;;;;;;;;;;18.40;56.00;;;;;;4997132;28;19918;-61
2022/05/01 11:54:58;;;;;;;;;;;18.20;55.20;;;;;;4996735;28;19953;-62
2022/05/01 12:02:57;;;;;;;;;;;18.40;57.70;;;;;;4996579;28;19949;-62
2022/05/01 12:05:22;;;;;;;;;;;18.30;59.20;;;;;;4996753;28;19910;-61
2022/05/01 12:07:55;;;;;;;;;;;18.40;58.00;;;;;;4996677;28;19974;-61
2022/05/01 12:10:21;;;;;;;;;;;18.00;55.80;;;;;;4996650;28;19909;-62
2022/05/01 12:12:46;;;;;;;;;;;18.00;57.30;;;;;;5013729;28;19936;-60
2022/05/01 12:15:12;;;;;;;;;;;17.70;56.90;;;;;;5016209;28;20278;-59
2022/05/01 12:17:41;;;;;;;;;;;17.40;58.90;;;;;;5015950;28;19932;-60
2022/05/01 12:20:07;;;;;;;;;;;17.20;56.90;;;;;;5008978;28;20005;-60
2022/05/01 12:22:37;;;;;;;;;;;17.20;59.20;;;;;;4996605;28;20365;-61
2022/05/01 12:25:03;;;;;;;;;;;17.20;59.90;;;;;;4996333;28;19921;-62
2022/05/01 12:27:33;;;;;;;;;;;17.30;59.70;;;;;;4996564;28;20392;-61
2022/05/01 12:30:00;;;;;;;;;;;17.20;60.70;;;;;;4996062;28;19968;-61
2022/05/01 12:32:26;;;;;;;;;;;17.20;60.80;;;;;;4996147;28;19964;-62
2022/05/01 12:34:52;;;;;;;;;;;17.30;60.10;;;;;;4996195;28;19933;-62
2022/05/01 12:37:18;;;;;;;;;;;17.30;59.10;;;;;;4996527;28;19909;-61
2022/05/01 12:39:55;;;;;;;;;;;17.40;58.90;;;;;;4996425;28;19910;-61
2022/05/01 12:45:05;;;;;;;;;;;17.00;62.00;;;;;;5014749;28;19920;-60
2022/05/01 12:47:31;;;;;;;;;;;16.90;63.10;;;;;;5015932;28;19910;-61
2022/05/01 12:49:57;;;;;;;;;;;16.90;63.20;;;;;;5016155;28;19945;-60
2022/05/01 12:52:32;;;;;;;;;;;17.10;62.30;;;;;;5016056;28;19945;-62
2022/05/01 12:55:08;;;;;;;;;;;17.20;62.80;;;;;;5014310;28;19949;-63
2022/05/01 12:57:34;;;;;;;;;;;17.00;62.10;;;;;;5013498;28;19917;-61
2022/05/01 13:00:00;;;;;;;;;;;16.80;62.60;;;;;;5015688;28;19917;-59
2022/05/01 13:02:25;;;;;;;;;;;17.00;61.50;;;;;;5004675;28;19917;-61
2022/05/01 13:04:57;;;;;;;;;;;17.00;61.20;;;;;;5006754;28;19940;-60
2022/05/01 13:07:30;;;;;;;;;;;17.20;60.70;;;;;;5006463;28;19914;-60
2022/05/01 13:09:56;;;;;;;;;;;17.20;60.10;;;;;;5013370;28;19950;-61
2022/05/01 13:12:31;;;;;;;;;;;17.30;59.40;;;;;;5015388;28;19909;-59
2022/05/01 13:14:58;;;;;;;;;;;17.30;60.60;;;;;;5013847;28;19956;-61
2022/05/01 13:17:27;;;;;;;;;;;17.10;59.30;;;;;;5015556;28;19909;-61
2022/05/01 13:19:53;;;;;;;;;;;17.10;59.80;;;;;;5015689;28;20258;-61
2022/05/01 13:22:19;;;;;;;;;;;17.10;61.40;;;;;;5015871;28;19932;-62
2022/05/01 13:24:45;;;;;;;;;;;17.40;61.40;;;;;;5015588;28;19926;-62
2022/05/01 13:27:12;;;;;;;;;;;17.40;60.90;;;;;;5015694;28;19917;-61
2022/05/01 13:29:38;;;;;;;;;;;17.50;59.50;;;;;;5015585;28;19964;-61
2022/05/01 13:32:06;;;;;;;;;;;17.90;60.40;;;;;;5015624;28;20269;-61
2022/05/01 13:34:32;;;;;;;;;;;18.00;59.70;;;;;;5015481;28;20369;-61
2022/05/01 13:37:02;;;;;;;;;;;18.40;59.70;;;;;;5015310;28;19910;-61
2022/05/01 13:44:44;;;;;;;;;;;18.20;59.00;;;;;;5015590;28;19913;-62
2022/05/01 13:45:00;;;;;;;;;;;18.30;58.00;;;;;;5015544;28;20009;-63
2022/05/01 13:47:26;;;;;;;;;;;18.70;59.20;;;;;;5015238;28;19917;-62
2022/05/01 13:49:51;;;;;;;;;;;18.80;59.60;;;;;;5015136;28;19910;-60
2022/05/01 13:52:17;;;;;;;;;;;18.90;58.90;;;;;;5023197;28;19949;-72
2022/05/01 13:54:44;;;;;;;;;;;19.20;58.40;;;;;;5016273;28;19945;-77
2022/05/01 13:57:10;;;;;;;;;;;19.60;57.20;;;;;;5002544;28;19909;-59
2022/05/01 13:59:36;;;;;;;;;;;19.50;56.50;;;;;;5005499;28;19913;-67
2022/05/01 14:02:02;;;;;;;;;;;19.20;57.50;;;;;;5014441;28;19967;-61
2022/05/01 14:04:27;;;;;;;;;;;18.90;56.60;;;;;;5013355;28;19964;-60
2022/05/01 14:06:53;;;;;;;;;;;18.90;57.80;;;;;;5014604;28;20357;-58
2022/05/01 14:09:19;;;;;;;;;;;18.70;57.70;;;;;;5014402;28;19921;-63
2022/05/01 14:11:52;;;;;;;;;;;18.70;58.40;;;;;;5005525;28;19933;-62
2022/05/01 14:14:18;;;;;;;;;;;18.60;58.60;;;;;;5014827;28;20364;-58
2022/05/01 14:16:44;;;;;;;;;;;18.60;59.10;;;;;;5014516;28;19909;-60
2022/05/01 14:19:21;;;;;;;;;;;18.20;59.20;;;;;;5014732;28;20332;-62
2022/05/01 14:21:47;;;;;;;;;;;18.20;58.90;;;;;;5014648;28;19979;-58
2022/05/01 14:24:14;;;;;;;;;;;18.10;59.70;;;;;;5014621;28;20285;-61
2022/05/01 14:26:39;;;;;;;;;;;17.90;60.00;;;;;;5014779;28;20378;-62
2022/05/01 14:29:05;;;;;;;;;;;17.90;60.30;;;;;;5014214;28;19914;-62
2022/05/01 14:31:39;;;;;;;;;;;18.00;60.80;;;;;;5013829;28;19914;-64
2022/05/01 14:34:09;;;;;;;;;;;18.10;61.70;;;;;;5014495;28;19956;-61
2022/05/01 14:36:36;;;;;;;;;;;17.80;61.90;;;;;;5012743;28;19921;-60
2022/05/01 14:39:08;;;;;;;;;;;17.60;63.90;;;;;;5014350;28;19909;-61
2022/05/01 14:41:42;;;;;;;;;;;17.70;63.50;;;;;;5013778;28;19963;-61
2022/05/01 14:44:08;;;;;;;;;;;17.70;63.80;;;;;;5014449;28;19910;-62
2022/05/01 14:46:47;;;;;;;;;;;17.50;63.90;;;;;;5014297;28;19914;-62
2022/05/01 14:49:13;;;;;;;;;;;17.50;64.00;;;;;;5014295;28;19910;-60
2022/05/01 14:51:39;;;;;;;;;;;17.30;64.30;;;;;;5013774;28;19924;-62
2022/05/01 14:54:06;;;;;;;;;;;17.10;64.80;;;;;;5013894;28;19921;-60
2022/05/01 14:56:35;;;;;;;;;;;16.70;67.40;;;;;;5013247;28;20008;-62